Time;durP1;ratioP1;P1;durP2;ratioP2;P2;SDS_P1;SDS_P2;PMS_P1;PMS_P2;Temp;Humidity;BMP_temperature;BMP_pressure;BME280_temperature;BME280_humidity;BME280_pressure;Samples;Min_cycle;Max_cycle;Signal;HPM_P1;HPM_P2
2022/06/02 00:02:24;;;;;;;;;;;;;;;27.82;39.35;100688.19;5056012;28;943;-50
2022/06/02 00:04:56;;;;;;;;;;;;;;;28.07;36.78;100687.84;5055654;28;998;-50
2022/06/02 00:07:28;;;;;;;;;;;;;;;27.97;37.87;100685.44;5037833;28;1902;-51
2022/06/02 00:09:57;;;;;;;;;;;;;;;27.93;39.33;100683.28;5041983;28;852;-49
2022/06/02 00:12:33;;;;;;;;;;;;;;;28.09;36.90;100680.34;5041314;28;871;-50
2022/06/02 00:14:58;;;;;;;;;;;;;;;27.83;38.22;100670.94;5059690;28;863;-50
2022/06/02 00:17:26;;;;;;;;;;;;;;;28.06;38.90;100669.94;5059394;28;1010;-48
2022/06/02 00:20:08;;;;;;;;;;;;;;;27.98;37.40;100670.88;5059458;28;829;-48
2022/06/02 00:22:52;;;;;;;;;;;;;;;27.76;39.09;100667.31;5053797;28;861;-48
2022/06/02 00:25:32;;;;;;;;;;;;;;;28.09;38.82;100669.53;5058950;28;827;-52
2022/06/02 00:28:03;;;;;;;;;;;;;;;27.94;37.82;100666.91;5059546;28;821;-49
2022/06/02 00:30:34;;;;;;;;;;;;;;;27.69;39.65;100677.22;5059081;28;808;-48
2022/06/02 00:33:12;;;;;;;;;;;;;;;28.23;36.72;100680.50;5059069;28;746;-49
2022/06/02 00:35:42;;;;;;;;;;;;;;;27.86;37.51;100675.13;5052764;28;795;-47
2022/06/02 00:38:22;;;;;;;;;;;;;;;27.72;39.49;100683.06;5059222;28;822;-51
2022/06/02 00:40:47;;;;;;;;;;;;;;;28.19;36.31;100665.69;5040805;28;872;-48
2022/06/02 00:43:28;;;;;;;;;;;;;;;27.93;37.25;100669.78;5058909;28;798;-48
2022/06/02 00:45:59;;;;;;;;;;;;;;;27.88;39.59;100664.94;5058493;28;1906;-48
2022/06/02 00:48:48;;;;;;;;;;;;;;;28.16;36.73;100666.91;5041144;28;775;-50
2022/06/02 00:51:14;;;;;;;;;;;;;;;27.95;37.02;100671.28;5034682;28;981;-48
2022/06/02 00:53:41;;;;;;;;;;;;;;;27.72;39.96;100672.28;5058581;28;857;-50
2022/06/02 00:59:24;;;;;;;;;;;;;;;27.90;37.10;100664.75;5043616;28;853;-47
2022/06/02 01:01:51;;;;;;;;;;;;;;;27.86;39.38;100661.63;5040532;28;968;-47
2022/06/02 01:04:17;;;;;;;;;;;;;;;28.14;36.47;100669.00;5058359;28;903;-49
2022/06/02 01:06:42;;;;;;;;;;;;;;;27.83;37.62;100662.81;5058387;28;1902;-49
2022/06/02 01:09:07;;;;;;;;;;;;;;;28.08;39.06;100661.63;5058663;28;966;-48
2022/06/02 01:11:38;;;;;;;;;;;;;;;27.98;36.71;100662.78;5058633;28;817;-49
2022/06/02 01:14:17;;;;;;;;;;;;;;;27.82;38.64;100663.00;5051655;28;750;-48
2022/06/02 01:17:05;;;;;;;;;;;;;;;28.22;35.65;100666.16;5035492;28;812;-48
2022/06/02 01:19:34;;;;;;;;;;;;;;;28.09;36.43;100674.94;5046942;28;1459;-47
2022/06/02 01:21:59;;;;;;;;;;;;;;;27.77;38.69;100669.00;5058678;28;750;-51
2022/06/02 01:24:36;;;;;;;;;;;;;;;28.13;35.97;100670.00;5058498;28;762;-49
2022/06/02 01:27:14;;;;;;;;;;;;;;;28.02;36.86;100670.50;5057787;28;1906;-48
2022/06/02 01:29:45;;;;;;;;;;;;;;;27.93;39.03;100667.06;5058228;28;786;-50
2022/06/02 01:32:22;;;;;;;;;;;;;;;28.09;35.74;100658.72;5040924;28;833;-49
2022/06/02 01:34:50;;;;;;;;;;;;;;;28.03;36.50;100664.09;5040717;28;929;-48
2022/06/02 01:37:28;;;;;;;;;;;;;;;28.07;38.62;100668.06;5058351;28;773;-52
2022/06/02 01:40:02;;;;;;;;;;;;;;;28.08;36.11;100673.28;5057898;28;782;-50
2022/06/02 01:42:27;;;;;;;;;;;;;;;27.99;37.56;100671.75;5057715;28;841;-51
2022/06/02 01:45:11;;;;;;;;;;;;;;;28.20;38.48;100673.63;5057722;28;969;-49
2022/06/02 01:47:38;;;;;;;;;;;;;;;28.20;36.15;100673.63;5057305;28;1967;-50
2022/06/02 01:50:21;;;;;;;;;;;;;;;27.87;37.92;100674.94;5058335;28;774;-48
2022/06/02 01:52:47;;;;;;;;;;;;;;;28.28;38.33;100674.53;5057350;28;838;-47
2022/06/02 01:55:12;;;;;;;;;;;;;;;28.20;37.21;100678.19;5057395;28;1560;-51
2022/06/02 01:57:56;;;;;;;;;;;;;;;27.92;39.01;100679.78;5058033;28;1038;-47
2022/06/02 02:00:22;;;;;;;;;;;;;;;28.28;35.40;100675.34;5057203;28;896;-48
2022/06/02 02:02:56;;;;;;;;;;;;;;;28.06;36.08;100674.53;5057582;28;814;-48
2022/06/02 02:05:30;;;;;;;;;;;;;;;27.95;39.00;100673.13;5056742;28;822;-49
2022/06/02 02:07:59;;;;;;;;;;;;;;;28.18;35.95;100666.72;5057612;28;1014;-47
2022/06/02 02:10:30;;;;;;;;;;;;;;;27.90;36.59;100657.50;5057475;28;859;-49
2022/06/02 02:13:15;;;;;;;;;;;;;;;28.13;38.24;100661.06;5039849;28;915;-52
2022/06/02 02:15:46;;;;;;;;;;;;;;;24.96;47.63;100674.28;5050925;28;959;-49
2022/06/02 02:18:11;;;;;;;;;;;;;;;26.66;40.58;100668.59;5057028;28;776;-50
2022/06/02 02:20:40;;;;;;;;;;;;;;;26.73;41.70;100677.66;5057590;28;794;-49
2022/06/02 02:23:11;;;;;;;;;;;;;;;27.66;37.50;100674.84;5057044;28;838;-50
2022/06/02 02:25:37;;;;;;;;;;;;;;;27.57;37.63;100680.38;5056716;28;1984;-48
2022/06/02 02:28:08;;;;;;;;;;;;;;;27.54;39.49;100679.91;5057501;28;746;-47
2022/06/02 02:30:45;;;;;;;;;;;;;;;27.96;36.27;100677.53;5055313;28;853;-47
2022/06/02 02:33:22;;;;;;;;;;;;;;;27.71;37.34;100675.16;5057221;28;842;-45
2022/06/02 02:36:00;;;;;;;;;;;;;;;27.72;38.86;100672.28;5057162;28;838;-48
2022/06/02 02:38:30;;;;;;;;;;;;;;;27.96;36.70;100675.66;5056371;28;822;-47
2022/06/02 02:40:57;;;;;;;;;;;;;;;27.64;37.84;100672.34;5038536;28;943;-47
2022/06/02 02:43:28;;;;;;;;;;;;;;;27.93;38.00;100676.03;5039170;28;841;-49
2022/06/02 02:45:56;;;;;;;;;;;;;;;27.92;36.14;100671.66;5031456;28;1899;-48
2022/06/02 02:48:36;;;;;;;;;;;;;;;27.86;37.94;100675.13;5037219;28;881;-48
2022/06/02 02:51:04;;;;;;;;;;;;;;;28.08;36.30;100678.69;5031791;28;1211;-49
2022/06/02 02:53:39;;;;;;;;;;;;;;;27.95;36.35;100671.28;5036731;28;1109;-51
2022/06/02 02:56:04;;;;;;;;;;;;;;;27.77;38.42;100669.00;5012304;28;838;-49
2022/06/02 02:58:51;;;;;;;;;;;;;;;28.00;36.09;100678.81;5036654;28;747;-48
2022/06/02 03:01:19;;;;;;;;;;;;;;;27.97;37.40;100677.34;5018532;28;871;-49
2022/06/02 03:04:03;;;;;;;;;;;;;;;27.85;38.10;100679.69;5037397;28;802;-51
2022/06/02 03:06:30;;;;;;;;;;;;;;;27.74;39.65;100683.69;5030081;28;1959;-38
2022/06/02 03:09:05;;;;;;;;;;;;;;;27.43;41.78;100689.28;5036704;28;807;-38
2022/06/02 03:11:48;;;;;;;;;;;;;;;27.05;42.63;100688.34;5036635;28;805;-38
2022/06/02 03:14:27;;;;;;;;;;;;;;;27.02;42.42;100688.72;5036107;28;791;-37
2022/06/02 03:17:11;;;;;;;;;;;;;;;26.89;43.38;100689.34;5016570;28;886;-40
2022/06/02 03:19:41;;;;;;;;;;;;;;;26.73;43.70;100690.28;5030105;28;1008;-39
2022/06/02 03:22:10;;;;;;;;;;;;;;;26.76;43.65;100696.19;5018015;28;830;-38
2022/06/02 03:24:43;;;;;;;;;;;;;;;26.81;43.87;100695.63;5018820;28;778;-40
2022/06/02 03:27:13;;;;;;;;;;;;;;;26.68;43.82;100698.94;5018179;28;1898;-40
2022/06/02 03:29:52;;;;;;;;;;;;;;;26.69;43.82;100705.19;5035960;28;723;-40
2022/06/02 03:32:24;;;;;;;;;;;;;;;26.87;43.09;100703.00;5036239;28;869;-39
2022/06/02 03:34:50;;;;;;;;;;;;;;;26.71;44.10;100697.75;5035201;28;834;-38
2022/06/02 03:37:18;;;;;;;;;;;;;;;26.73;44.08;100701.94;5035897;28;861;-37
2022/06/02 03:39:46;;;;;;;;;;;;;;;26.77;43.99;100705.97;5035760;28;943;-38
2022/06/02 03:42:35;;;;;;;;;;;;;;;26.82;43.73;100700.00;5035957;28;723;-38
2022/06/02 03:45:18;;;;;;;;;;;;;;;26.44;45.82;100705.38;5005094;28;1296;-37
2022/06/02 03:47:53;;;;;;;;;;;;;;;26.68;45.02;100706.19;5033759;28;1980;-38
2022/06/02 03:50:22;;;;;;;;;;;;;;;24.86;50.28;100712.09;5034078;28;1244;-38
2022/06/02 03:52:59;;;;;;;;;;;;;;;26.39;44.57;100714.81;5034219;28;1530;-38
2022/06/02 03:55:31;;;;;;;;;;;;;;;26.89;44.33;100706.34;5034902;28;1324;-36
2022/06/02 03:58:03;;;;;;;;;;;;;;;27.16;43.80;100703.25;5016862;28;1510;-37
2022/06/02 04:00:30;;;;;;;;;;;;;;;27.49;38.99;100705.59;5016741;28;1325;-38
2022/06/02 04:02:59;;;;;;;;;;;;;;;27.49;39.79;100694.78;5020856;28;1337;-37
2022/06/02 04:05:37;;;;;;;;;;;;;;;27.71;39.24;100705.72;5035302;28;841;-36
2022/06/02 04:08:33;;;;;;;;;;;;;;;27.55;40.17;100711.28;5035489;28;1379;-36
2022/06/02 04:11:14;;;;;;;;;;;;;;;27.43;39.98;100702.78;5023027;28;1102;-36
2022/06/02 04:13:51;;;;;;;;;;;;;;;27.46;40.72;100705.16;5035148;28;731;-36
2022/06/02 04:16:19;;;;;;;;;;;;;;;27.52;39.72;100704.41;5019095;28;880;-36
2022/06/02 04:20:34;;;;;;;;;;;;;;;27.23;40.77;100706.91;5035852;28;751;-36
2022/06/02 04:21:53;;;;;;;;;;;;;;;27.33;40.76;100709.31;5035579;28;806;-36
2022/06/02 04:24:20;;;;;;;;;;;;;;;27.63;39.88;100708.47;5017233;28;1110;-36
2022/06/02 04:27:06;;;;;;;;;;;;;;;27.42;40.71;100709.25;5034707;28;1894;-35
2022/06/02 04:29:50;;;;;;;;;;;;;;;27.55;41.29;100708.56;5018054;28;1198;-35
2022/06/02 04:32:16;;;;;;;;;;;;;;;24.89;47.99;100711.75;5035624;28;858;-35
2022/06/02 04:34:59;;;;;;;;;;;;;;;26.26;44.49;100712.69;5035584;28;834;-36
2022/06/02 04:37:40;;;;;;;;;;;;;;;26.95;44.44;100710.19;5034818;28;815;-35
2022/06/02 04:40:17;;;;;;;;;;;;;;;27.42;43.19;100710.09;5030209;28;796;-36
2022/06/02 04:42:50;;;;;;;;;;;;;;;27.49;41.33;100713.69;5035610;28;942;-36
2022/06/02 04:45:34;;;;;;;;;;;;;;;27.50;42.20;100718.09;5019125;28;1013;-35
2022/06/02 04:48:07;;;;;;;;;;;;;;;27.87;41.90;100726.31;5055026;28;861;-36
2022/06/02 04:50:32;;;;;;;;;;;;;;;27.72;42.27;100720.91;5037351;28;802;-36
2022/06/02 04:53:04;;;;;;;;;;;;;;;27.55;43.45;100713.97;5055445;28;859;-36
2022/06/02 04:55:35;;;;;;;;;;;;;;;27.79;41.76;100715.59;5058743;28;743;-36
2022/06/02 04:58:12;;;;;;;;;;;;;;;26.36;40.61;100711.66;5051835;28;1392;-36
2022/06/02 05:00:56;;;;;;;;;;;;;;;25.65;48.24;100716.88;5039890;28;1640;-36
2022/06/02 05:03:43;;;;;;;;;;;;;;;26.71;47.15;100730.13;5057447;28;1132;-36
2022/06/02 05:06:14;;;;;;;;;;;;;;;27.43;44.70;100735.22;5040714;28;1942;-36
2022/06/02 05:08:49;;;;;;;;;;;;;;;27.56;44.75;100731.88;5033789;28;1339;-36
2022/06/02 05:11:14;;;;;;;;;;;;;;;27.51;45.15;100732.41;5057478;28;1362;-36
2022/06/02 05:13:43;;;;;;;;;;;;;;;27.82;44.29;100725.19;5057643;28;1236;-35
2022/06/02 05:16:47;;;;;;;;;;;;;;;27.61;45.09;100730.28;5057650;28;886;-36
2022/06/02 05:19:12;;;;;;;;;;;;;;;27.73;45.05;100730.69;4972837;28;1237;-36
2022/06/02 05:21:37;;;;;;;;;;;;;;;27.92;44.54;100730.28;4976915;28;1393;-36
2022/06/02 05:24:21;;;;;;;;;;;;;;;27.90;40.88;100732.34;5006737;28;970;-36
2022/06/02 05:26:55;;;;;;;;;;;;;;;28.00;43.89;100732.88;5048745;28;1898;-36
2022/06/02 05:29:24;;;;;;;;;;;;;;;24.67;48.38;100727.53;5057838;28;822;-38
2022/06/02 05:31:50;;;;;;;;;;;;;;;26.06;49.01;100733.03;5055599;28;1178;-37
2022/06/02 05:34:33;;;;;;;;;;;;;;;26.86;48.56;100730.19;5058404;28;762;-37
2022/06/02 05:37:20;;;;;;;;;;;;;;;27.78;43.43;100737.41;5057693;28;842;-37
2022/06/02 05:39:58;;;;;;;;;;;;;;;27.80;43.97;100727.22;5041057;28;755;-37
2022/06/02 05:42:30;;;;;;;;;;;;;;;27.53;46.00;100727.69;5054311;28;826;-37
2022/06/02 05:44:58;;;;;;;;;;;;;;;28.09;42.22;100733.63;5058090;28;846;-37
2022/06/02 05:47:33;;;;;;;;;;;;;;;27.96;43.76;100739.72;5055704;28;1910;-36
2022/06/02 05:50:29;;;;;;;;;;;;;;;27.74;45.57;100736.94;5038986;28;1182;-37
2022/06/02 05:53:06;;;;;;;;;;;;;;;28.27;42.50;100738.59;5040175;28;1506;-37
2022/06/02 05:55:34;;;;;;;;;;;;;;;26.24;45.49;100727.38;5057099;28;834;-36
2022/06/02 05:58:14;;;;;;;;;;;;;;;25.47;51.42;100732.38;5057564;28;779;-36
2022/06/02 06:00:51;;;;;;;;;;;;;;;27.18;47.76;100732.78;5040570;28;1010;-36
2022/06/02 06:03:24;;;;;;;;;;;;;;;27.69;42.44;100725.84;5057210;28;815;-41
2022/06/02 06:05:54;;;;;;;;;;;;;;;27.94;43.43;100733.66;5040121;28;1898;-38
2022/06/02 06:08:20;;;;;;;;;;;;;;;28.24;41.53;100730.88;5037238;28;1246;-39
2022/06/02 06:11:06;;;;;;;;;;;;;;;26.49;45.25;100724.56;5057347;28;833;-39
2022/06/02 06:13:34;;;;;;;;;;;;;;;25.68;50.21;100729.16;5038637;28;1359;-38
2022/06/02 06:16:23;;;;;;;;;;;;;;;27.34;45.76;100726.38;5039559;28;1514;-38
2022/06/02 06:18:56;;;;;;;;;;;;;;;27.91;43.25;100732.16;5010232;28;1180;-38
2022/06/02 06:21:30;;;;;;;;;;;;;;;28.28;42.78;100728.63;5039750;28;767;-36
2022/06/02 06:24:01;;;;;;;;;;;;;;;28.47;43.56;100729.91;5057019;28;791;-37
2022/06/02 06:26:46;;;;;;;;;;;;;;;25.39;47.70;100719.78;5057344;28;1902;-36
2022/06/02 06:29:29;;;;;;;;;;;;;;;25.94;49.91;100719.97;5057107;28;1416;-36
2022/06/02 06:31:55;;;;;;;;;;;;;;;27.47;47.22;100726.56;5052997;28;1339;-36
2022/06/02 06:34:31;;;;;;;;;;;;;;;27.98;43.88;100719.56;5057456;28;794;-37
2022/06/02 06:36:57;;;;;;;;;;;;;;;27.18;43.21;100720.13;5056075;28;746;-37
2022/06/02 06:39:33;;;;;;;;;;;;;;;24.14;56.64;100717.81;5055974;28;814;-37
2022/06/02 06:42:17;;;;;;;;;;;;;;;26.68;46.77;100719.69;5033457;28;766;-37
2022/06/02 06:44:49;;;;;;;;;;;;;;;27.77;44.06;100717.66;5056892;28;757;-37
2022/06/02 06:47:20;;;;;;;;;;;;;;;28.22;41.69;100728.38;5037292;28;1985;-37
2022/06/02 06:49:51;;;;;;;;;;;;;;;23.90;52.60;100724.81;5041214;28;1194;-37
2022/06/02 06:52:43;;;;;;;;;;;;;;;26.09;49.20;100724.59;5035865;28;1529;-35
2022/06/02 06:55:14;;;;;;;;;;;;;;;27.30;46.40;100725.91;5033479;28;1699;-36
2022/06/02 06:57:45;;;;;;;;;;;;;;;24.63;49.61;100727.03;5044122;28;1489;-35
2022/06/02 07:00:22;;;;;;;;;;;;;;;26.08;48.35;100731.00;5049012;28;1390;-36
2022/06/02 07:02:53;;;;;;;;;;;;;;;27.17;47.18;100737.34;5053600;28;1284;-37
2022/06/02 07:05:25;;;;;;;;;;;;;;;24.68;48.30;100737.28;5056437;28;808;-37
2022/06/02 07:08:09;;;;;;;;;;;;;;;25.71;48.11;100727.97;5056429;28;1906;-36
2022/06/02 07:10:47;;;;;;;;;;;;;;;27.21;47.65;100735.13;5038446;28;982;-36
2022/06/02 07:13:12;;;;;;;;;;;;;;;25.57;44.96;100735.72;5056292;28;750;-36
2022/06/02 07:15:41;;;;;;;;;;;;;;;24.90;50.00;100743.91;5056128;28;859;-36
2022/06/02 07:18:13;;;;;;;;;;;;;;;26.88;41.46;100742.47;5055167;28;849;-36
2022/06/02 07:20:42;;;;;;;;;;;;;;;26.71;41.56;100738.22;5055330;28;826;-36
2022/06/02 07:23:09;;;;;;;;;;;;;;;24.23;53.06;100742.06;5056061;28;1027;-36
2022/06/02 07:25:44;;;;;;;;;;;;;;;26.55;42.00;100736.47;5056243;28;823;-36
2022/06/02 07:28:10;;;;;;;;;;;;;;;26.64;41.92;100736.22;5056332;28;820;-38
2022/06/02 07:30:54;;;;;;;;;;;;;;;24.20;52.24;100736.03;5047414;28;892;-38
2022/06/02 07:33:28;;;;;;;;;;;;;;;26.72;41.73;100726.41;5035265;28;1382;-37
2022/06/02 07:35:59;;;;;;;;;;;;;;;26.89;41.03;100741.44;5042945;28;999;-40
2022/06/02 07:38:38;;;;;;;;;;;;;;;24.48;51.38;100739.44;5056343;28;806;-40
2022/06/02 07:41:10;;;;;;;;;;;;;;;26.78;41.92;100748.13;5055168;28;770;-41
2022/06/02 07:43:39;;;;;;;;;;;;;;;27.72;40.42;100737.13;5056083;28;846;-38
2022/06/02 07:46:04;;;;;;;;;;;;;;;24.22;50.75;100741.25;5054474;28;1910;-37
2022/06/02 07:48:50;;;;;;;;;;;;;;;26.45;42.65;100737.56;5054352;28;1204;-37
2022/06/02 07:51:19;;;;;;;;;;;;;;;25.09;44.19;100741.03;5003916;28;1121;-36
2022/06/02 07:54:03;;;;;;;;;;;;;;;25.47;46.16;100737.75;5036878;28;1402;-36
2022/06/02 07:56:42;;;;;;;;;;;;;;;27.07;43.99;100734.91;5055936;28;865;-35
2022/06/02 07:59:26;;;;;;;;;;;;;;;24.46;45.73;100736.91;5037795;28;1557;-35
2022/06/02 08:02:06;;;;;;;;;;;;;;;26.06;43.67;100728.47;5050234;28;1221;-35
2022/06/02 08:04:32;;;;;;;;;;;;;;;24.40;45.75;100724.13;5054999;28;1520;-35
2022/06/02 08:07:02;;;;;;;;;;;;;;;25.88;44.61;100732.28;5052828;28;1902;-39
2022/06/02 08:09:40;;;;;;;;;;;;;;;25.01;44.21;100734.63;5038472;28;735;-35
2022/06/02 08:12:05;;;;;;;;;;;;;;;25.05;46.68;100733.28;5055447;28;873;-34
2022/06/02 08:14:30;;;;;;;;;;;;;;;26.61;40.81;100742.00;5055601;28;792;-36
2022/06/02 08:16:59;;;;;;;;;;;;;;;24.28;50.94;100737.91;5055876;28;1038;-36
2022/06/02 08:19:27;;;;;;;;;;;;;;;26.58;41.30;100739.66;5055510;28;861;-36
2022/06/02 08:22:00;;;;;;;;;;;;;;;23.87;49.68;100735.88;5055795;28;806;-38
2022/06/02 08:24:28;;;;;;;;;;;;;;;26.32;42.47;100732.72;5038066;28;823;-36
2022/06/02 08:27:12;;;;;;;;;;;;;;;25.04;44.18;100731.59;5054983;28;1967;-36
2022/06/02 08:29:37;;;;;;;;;;;;;;;25.72;44.61;100735.03;5056859;28;1562;-35
2022/06/02 08:32:05;;;;;;;;;;;;;;;25.78;42.39;100727.09;5058560;28;1505;-36
2022/06/02 08:34:36;;;;;;;;;;;;;;;24.74;49.69;100747.38;5059462;28;909;-36
2022/06/02 08:37:17;;;;;;;;;;;;;;;26.73;42.08;100737.03;5041666;28;1434;-34
2022/06/02 08:39:58;;;;;;;;;;;;;;;24.44;50.38;100737.09;5034808;28;825;-34
2022/06/02 08:42:38;;;;;;;;;;;;;;;26.71;41.83;100736.34;5056816;28;785;-34
2022/06/02 08:45:18;;;;;;;;;;;;;;;23.88;49.69;100742.09;5058959;28;926;-34
2022/06/02 08:48:19;;;;;;;;;;;;;;;26.18;43.08;100734.31;5021746;28;1910;-34
2022/06/02 08:51:05;;;;;;;;;;;;;;;24.00;48.51;100742.63;4977925;28;1218;-35
2022/06/02 08:53:49;;;;;;;;;;;;;;;26.23;42.87;100741.88;5005427;28;1070;-36
2022/06/02 08:56:33;;;;;;;;;;;;;;;24.94;43.81;100739.03;5039100;28;770;-36
2022/06/02 08:59:17;;;;;;;;;;;;;;;25.26;45.59;100744.53;5038950;28;898;-36
2022/06/02 09:01:42;;;;;;;;;;;;;;;27.07;41.09;100744.88;5051422;28;1175;-36
2022/06/02 09:04:26;;;;;;;;;;;;;;;23.94;50.93;100744.16;5057518;28;1521;-36
2022/06/02 09:06:51;;;;;;;;;;;;;;;26.43;42.17;100744.13;5044535;28;2022;-36
2022/06/02 09:09:28;;;;;;;;;;;;;;;24.04;46.07;100735.94;5058232;28;1493;-36
2022/06/02 09:12:02;;;;;;;;;;;;;;;25.48;43.36;100745.66;5058395;28;1568;-36
2022/06/02 09:14:46;;;;;;;;;;;;;;;26.90;42.99;100750.38;5058717;28;1108;-36
2022/06/02 09:17:12;;;;;;;;;;;;;;;23.83;51.31;100756.84;5057966;28;1245;-36
2022/06/02 09:19:38;;;;;;;;;;;;;;;26.22;43.04;100754.53;5058016;28;1591;-36
2022/06/02 09:22:03;;;;;;;;;;;;;;;25.19;42.84;100749.78;5040105;28;1418;-36
2022/06/02 09:24:32;;;;;;;;;;;;;;;24.44;49.61;100753.22;5058726;28;825;-36
2022/06/02 09:27:16;;;;;;;;;;;;;;;26.58;42.74;100741.50;5057772;28;1964;-36
2022/06/02 09:29:41;;;;;;;;;;;;;;;23.82;48.12;100752.47;5039763;28;1219;-36
2022/06/02 09:32:20;;;;;;;;;;;;;;;25.53;45.62;100750.53;5057304;28;803;-36
2022/06/02 09:34:53;;;;;;;;;;;;;;;24.20;47.60;100745.94;5039728;28;773;-36
2022/06/02 09:37:24;;;;;;;;;;;;;;;24.50;50.54;100751.72;5057558;28;1068;-36
2022/06/02 09:39:54;;;;;;;;;;;;;;;26.07;43.49;100754.44;5058001;28;905;-36
2022/06/02 09:42:35;;;;;;;;;;;;;;;23.69;55.42;100758.28;5057866;28;905;-36
2022/06/02 09:45:19;;;;;;;;;;;;;;;26.24;45.69;100752.47;5058250;28;866;-36
2022/06/02 09:48:03;;;;;;;;;;;;;;;23.89;54.11;100765.28;5036351;28;1902;-36
2022/06/02 09:50:54;;;;;;;;;;;;;;;26.32;43.03;100751.59;5037550;28;1411;-36
2022/06/02 09:53:36;;;;;;;;;;;;;;;23.69;53.49;100755.59;5030778;28;1975;-36
2022/06/02 09:56:04;;;;;;;;;;;;;;;26.12;44.24;100754.75;5036075;28;1213;-36
2022/06/02 09:58:30;;;;;;;;;;;;;;;24.57;46.00;100758.09;5037018;28;1287;-36
2022/06/02 10:00:55;;;;;;;;;;;;;;;24.79;48.66;100763.03;5037707;28;1537;-36
2022/06/02 10:03:40;;;;;;;;;;;;;;;26.46;42.69;100754.59;5036367;28;1281;-36
2022/06/02 10:06:08;;;;;;;;;;;;;;;23.89;52.48;100758.03;5037701;28;1974;-36
2022/06/02 10:08:40;;;;;;;;;;;;;;;26.17;43.86;100751.50;5037041;28;1161;-36
2022/06/02 10:11:15;;;;;;;;;;;;;;;26.11;42.08;100760.31;5037041;28;1243;-36
2022/06/02 10:13:58;;;;;;;;;;;;;;;23.91;52.09;100760.56;5036000;28;1208;-36
2022/06/02 10:16:39;;;;;;;;;;;;;;;26.26;43.01;100758.53;5036608;28;1168;-36
2022/06/02 10:19:23;;;;;;;;;;;;;;;23.83;47.07;100766.75;5037801;28;862;-36
2022/06/02 10:22:07;;;;;;;;;;;;;;;25.56;45.34;100760.97;5037545;28;759;-36
2022/06/02 10:24:35;;;;;;;;;;;;;;;26.82;43.26;100764.78;5037513;28;821;-36
2022/06/02 10:27:01;;;;;;;;;;;;;;;23.38;48.31;100760.56;5037659;28;1906;-36
2022/06/02 10:29:44;;;;;;;;;;;;;;;25.34;45.77;100765.22;5037451;28;766;-36
2022/06/02 10:32:28;;;;;;;;;;;;;;;26.69;45.58;100768.09;5033352;28;1030;-38
2022/06/02 10:34:56;;;;;;;;;;;;;;;24.16;46.20;100757.97;5030188;28;1208;-38
2022/06/02 10:37:22;;;;;;;;;;;;;;;24.99;46.79;100760.88;5037297;28;1045;-37
2022/06/02 10:40:06;;;;;;;;;;;;;;;26.59;43.92;100751.28;5036487;28;1199;-38
2022/06/02 10:42:38;;;;;;;;;;;;;;;24.17;46.03;100754.34;5035782;28;1196;-37
2022/06/02 10:45:13;;;;;;;;;;;;;;;24.86;47.34;100758.66;5031697;28;1268;-37
2022/06/02 10:47:57;;;;;;;;;;;;;;;26.74;43.72;100754.88;5036771;28;1905;-37
2022/06/02 10:50:49;;;;;;;;;;;;;;;24.73;44.56;100750.22;5036873;28;925;-36
2022/06/02 10:53:33;;;;;;;;;;;;;;;25.26;45.91;100741.84;5031238;28;1325;-37
2022/06/02 10:56:26;;;;;;;;;;;;;;;26.87;44.07;100746.19;5036688;28;1083;-37
2022/06/02 10:59:09;;;;;;;;;;;;;;;23.61;47.36;100736.75;5027929;28;1302;-37
2022/06/02 11:01:58;;;;;;;;;;;;;;;25.70;44.06;100735.22;5033976;28;1271;-35
2022/06/02 11:04:59;;;;;;;;;;;;;;;27.13;41.87;100738.72;5031179;28;1288;-37
2022/06/02 11:08:02;;;;;;;;;;;;;;;23.88;51.17;100734.88;4995054;28;2013;-36
2022/06/02 11:10:46;;;;;;;;;;;;;;;26.59;41.88;100735.94;4937607;29;1125;-36
2022/06/02 11:13:14;;;;;;;;;;;;;;;24.64;44.70;100744.03;4951463;28;852;-37
2022/06/02 11:15:47;;;;;;;;;;;;;;;24.54;48.07;100745.00;4997985;28;1011;-37
2022/06/02 11:18:15;;;;;;;;;;;;;;;26.65;41.92;100746.03;5036293;28;925;-37
2022/06/02 11:20:55;;;;;;;;;;;;;;;24.65;44.53;100734.94;5036287;28;826;-36
2022/06/02 11:23:27;;;;;;;;;;;;;;;24.49;47.66;100743.81;5035234;28;879;-36
2022/06/02 11:26:11;;;;;;;;;;;;;;;26.69;41.96;100746.50;5035972;28;1961;-36
2022/06/02 11:28:36;;;;;;;;;;;;;;;25.29;42.47;100742.34;5036299;28;738;-36
2022/06/02 11:31:04;;;;;;;;;;;;;;;24.34;48.43;100748.00;5036767;28;1053;-36
2022/06/02 11:33:45;;;;;;;;;;;;;;;26.55;41.46;100740.03;5036561;28;796;-35
2022/06/02 11:36:28;;;;;;;;;;;;;;;25.28;42.85;100737.13;5036494;28;972;-36
2022/06/02 11:39:03;;;;;;;;;;;;;;;24.42;48.04;100739.09;5036179;28;845;-36
2022/06/02 11:41:28;;;;;;;;;;;;;;;26.70;41.74;100733.84;5036207;28;1432;-37
2022/06/02 11:44:05;;;;;;;;;;;;;;;24.91;43.82;100742.03;5036124;28;782;-37
2022/06/02 11:46:48;;;;;;;;;;;;;;;24.11;49.12;100736.16;5047757;28;1918;-37
2022/06/02 11:49:32;;;;;;;;;;;;;;;26.61;41.55;100738.47;5056026;28;833;-36
2022/06/02 11:52:07;;;;;;;;;;;;;;;24.87;43.78;100732.59;5035927;28;820;-37
2022/06/02 11:54:39;;;;;;;;;;;;;;;24.36;48.04;100730.88;5036390;28;749;-37
2022/06/02 11:57:17;;;;;;;;;;;;;;;26.48;41.95;100718.31;5018712;28;834;-37
2022/06/02 12:00:01;;;;;;;;;;;;;;;25.20;42.65;100724.53;5036089;28;755;-37
2022/06/02 12:02:33;;;;;;;;;;;;;;;24.55;47.49;100722.50;5055399;28;932;-37
2022/06/02 12:04:58;;;;;;;;;;;;;;;26.71;41.62;100716.66;5060325;28;731;-35
2022/06/02 12:07:42;;;;;;;;;;;;;;;25.83;41.54;100714.94;5060120;28;1898;-36
2022/06/02 12:10:40;;;;;;;;;;;;;;;24.09;49.16;100717.47;5059891;28;798;-36
2022/06/02 12:13:06;;;;;;;;;;;;;;;26.72;42.82;100711.06;5015575;28;1074;-36
2022/06/02 12:15:51;;;;;;;;;;;;;;;25.51;42.18;100713.00;5041128;28;1542;-37
2022/06/02 12:18:16;;;;;;;;;;;;;;;24.09;49.44;100704.03;5059749;28;865;-37
2022/06/02 12:20:45;;;;;;;;;;;;;;;26.36;42.31;100696.31;5059480;28;1231;-37
2022/06/02 12:23:29;;;;;;;;;;;;;;;27.20;41.60;100699.16;5058929;28;738;-37
2022/06/02 12:26:13;;;;;;;;;;;;;;;23.62;51.43;100686.59;5059554;28;1894;-37
2022/06/02 12:28:50;;;;;;;;;;;;;;;26.22;42.89;100678.19;5041951;28;854;-36
2022/06/02 12:31:20;;;;;;;;;;;;;;;27.21;41.45;100683.81;5060959;28;1014;-36
2022/06/02 12:34:04;;;;;;;;;;;;;;;23.85;50.54;100685.00;5060017;28;846;-36
2022/06/02 12:36:36;;;;;;;;;;;;;;;26.30;42.73;100683.53;5059715;28;746;-36
2022/06/02 12:39:01;;;;;;;;;;;;;;;27.17;42.14;100677.94;5059594;28;734;-36
2022/06/02 12:41:45;;;;;;;;;;;;;;;23.57;50.19;100681.69;5058819;28;1236;-36
2022/06/02 12:44:10;;;;;;;;;;;;;;;25.99;43.61;100679.00;5059194;28;731;-36
2022/06/02 12:46:48;;;;;;;;;;;;;;;26.94;42.14;100681.53;5059266;28;1910;-36
2022/06/02 12:49:19;;;;;;;;;;;;;;;23.68;47.51;100683.25;5059339;28;1148;-36
2022/06/02 12:52:23;;;;;;;;;;;;;;;25.68;44.65;100673.41;5041650;28;739;-36
2022/06/02 12:54:54;;;;;;;;;;;;;;;27.20;41.66;100677.56;4977886;28;1156;-36
2022/06/02 12:57:38;;;;;;;;;;;;;;;25.35;42.57;100673.50;4977893;28;866;-37
2022/06/02 13:00:18;;;;;;;;;;;;;;;24.48;48.62;100678.44;5020365;28;1386;-35
2022/06/02 13:02:59;;;;;;;;;;;;;;;26.81;42.11;100678.59;5058129;28;1275;-36
2022/06/02 13:05:28;;;;;;;;;;;;;;;27.37;41.22;100678.25;5057354;28;1260;-36
2022/06/02 13:07:56;;;;;;;;;;;;;;;23.79;48.00;100664.16;5057544;28;1910;-36
2022/06/02 13:10:41;;;;;;;;;;;;;;;25.65;42.91;100668.38;5058367;28;1227;-36
2022/06/02 13:13:07;;;;;;;;;;;;;;;27.06;43.00;100681.91;5057407;28;1336;-36
2022/06/02 13:15:44;;;;;;;;;;;;;;;24.83;43.94;100679.13;5056967;28;1156;-35
2022/06/02 13:18:27;;;;;;;;;;;;;;;24.78;46.61;100672.56;5040184;28;1030;-35
2022/06/02 13:21:05;;;;;;;;;;;;;;;26.84;43.68;100676.34;5058092;28;1036;-35
2022/06/02 13:23:49;;;;;;;;;;;;;;;27.46;40.56;100683.53;5058389;28;1287;-36
2022/06/02 13:26:20;;;;;;;;;;;;;;;23.62;50.59;100678.53;5058279;28;1898;-36
2022/06/02 13:29:00;;;;;;;;;;;;;;;26.02;43.40;100684.03;5057858;28;1263;-36
2022/06/02 13:31:45;;;;;;;;;;;;;;;26.97;41.50;100683.84;5057925;28;1184;-36
2022/06/02 13:34:22;;;;;;;;;;;;;;;25.19;42.44;100669.84;5058688;28;727;-36
2022/06/02 13:37:06;;;;;;;;;;;;;;;24.67;46.70;100671.88;5057476;28;1005;-36
2022/06/02 13:39:37;;;;;;;;;;;;;;;26.71;43.72;100686.97;5058060;28;786;-36